createdAt,value
2019-02-04T00:00:49.300Z,8.98
2019-02-04T00:03:23.477Z,11.97
2019-02-04T00:05:55.050Z,15.40
2019-02-04T00:08:26.497Z,12.82
2019-02-04T00:10:59.374Z,9.45
2019-02-04T00:13:31.309Z,14.63
2019-02-04T00:16:02.795Z,11.65
2019-02-04T00:18:34.280Z,13.00
2019-02-04T00:21:05.977Z,10.75
2019-02-04T00:23:37.504Z,10.70
2019-02-04T00:26:08.966Z,12.33
2019-02-04T00:28:40.888Z,11.85
2019-02-04T00:31:12.903Z,10.93
2019-02-04T00:33:44.719Z,10.93
2019-02-04T00:36:18.795Z,13.65
2019-02-04T00:38:52.670Z,17.30
2019-02-04T00:41:24.549Z,12.15
2019-02-04T00:43:56.513Z,12.23
2019-02-04T00:46:28.504Z,15.30
2019-02-04T00:49:00.422Z,11.57
2019-02-04T00:51:32.355Z,14.28
2019-02-04T00:54:04.807Z,12.68
2019-02-04T00:56:44.053Z,16.90
2019-02-04T00:59:18.650Z,13.50
2019-02-04T01:01:53.338Z,11.15
2019-02-04T01:04:29.255Z,18.55
2019-02-04T01:07:07.931Z,13.13
2019-02-04T01:09:51.713Z,13.35
2019-02-04T01:12:30.309Z,12.13
2019-02-04T01:15:04.107Z,16.37
2019-02-04T01:17:37.835Z,10.70
2019-02-04T01:20:14.791Z,10.48
2019-02-04T01:22:52.768Z,11.25
2019-02-04T01:25:28.324Z,15.00
2019-02-04T01:28:08.163Z,9.85
2019-02-04T01:30:46.773Z,11.95
2019-02-04T01:33:23.539Z,13.03
2019-02-04T01:35:55.535Z,14.55
2019-02-04T01:38:27.464Z,13.72
2019-02-04T01:40:59.788Z,11.18
2019-02-04T01:43:35.840Z,8.75
2019-02-04T01:46:13.511Z,12.50
2019-02-04T01:49:02.876Z,14.25
2019-02-04T01:51:39.855Z,8.98
2019-02-04T01:54:12.309Z,10.60
2019-02-04T01:56:53.765Z,11.33
2019-02-04T01:59:28.904Z,14.85
2019-02-04T02:02:04.137Z,12.20
2019-02-04T02:04:37.562Z,11.75
2019-02-04T02:07:11.942Z,13.48
2019-02-04T02:09:46.382Z,9.40
2019-02-04T02:12:25.691Z,9.55
2019-02-04T02:14:57.395Z,14.33
2019-02-04T02:17:31.077Z,13.45
2019-02-04T02:20:09.135Z,10.82
2019-02-04T02:22:41.093Z,13.03
2019-02-04T02:25:13.612Z,13.53
2019-02-04T02:27:48.719Z,13.40
2019-02-04T02:30:29.328Z,12.78
2019-02-04T02:33:08.856Z,13.22
2019-02-04T02:35:41.051Z,13.70
2019-02-04T02:38:13.041Z,14.00
2019-02-04T02:40:47.101Z,10.20
2019-02-04T02:43:20.779Z,15.78
2019-02-04T02:45:55.262Z,10.78
2019-02-04T02:48:27.006Z,12.28
2019-02-04T02:50:59.281Z,10.35
2019-02-04T02:53:33.439Z,15.18
2019-02-04T02:56:05.860Z,15.00
2019-02-04T02:58:39.979Z,11.83
2019-02-04T03:01:12.262Z,13.50
2019-02-04T03:03:44.961Z,12.55
2019-02-04T03:06:19.958Z,14.55
2019-02-04T03:08:55.738Z,14.15
2019-02-04T03:11:32.862Z,9.55
2019-02-04T03:14:08.854Z,14.73
2019-02-04T03:16:41.241Z,15.18
2019-02-04T03:19:21.221Z,15.72
2019-02-04T03:21:56.302Z,17.90
2019-02-04T03:24:34.181Z,14.70
2019-02-04T03:27:14.907Z,12.13
2019-02-04T03:29:56.821Z,10.72
2019-02-04T03:32:33.742Z,11.68
2019-02-04T03:35:18.229Z,13.03
2019-02-04T03:37:54.830Z,12.40
2019-02-04T03:40:42.065Z,13.88
2019-02-04T03:43:16.649Z,14.63
2019-02-04T03:46:05.957Z,13.38
2019-02-04T03:48:56.375Z,13.32
2019-02-04T03:51:36.282Z,13.05
2019-02-04T03:54:22.095Z,10.58
2019-02-04T03:57:13.885Z,18.02
2019-02-04T04:00:02.377Z,13.05
2019-02-04T04:02:45.557Z,14.90
2019-02-04T04:05:30.180Z,16.35
2019-02-04T04:08:10.712Z,10.03
2019-02-04T04:10:59.862Z,13.30
2019-02-04T04:14:00.804Z,17.85
2019-02-04T04:16:45.193Z,11.15
2019-02-04T04:20:07.460Z,13.70
2019-02-04T04:22:48.839Z,13.20
2019-02-04T04:25:20.466Z,13.88
2019-02-04T04:27:52.046Z,20.48
2019-02-04T04:30:26.196Z,12.15
2019-02-04T04:33:01.591Z,14.13
2019-02-04T04:35:37.324Z,15.60
2019-02-04T04:38:08.672Z,17.17
2019-02-04T04:41:08.472Z,12.25
2019-02-04T04:43:48.380Z,13.43
2019-02-04T04:46:31.315Z,15.72
2019-02-04T04:49:14.111Z,23.30
2019-02-04T04:51:49.728Z,14.83
2019-02-04T04:54:26.394Z,16.02
2019-02-04T04:57:13.067Z,16.52
2019-02-04T05:00:28.868Z,16.80
2019-02-04T05:03:51.666Z,16.15
2019-02-04T05:06:32.585Z,14.73
2019-02-04T05:09:10.349Z,16.00
2019-02-04T05:11:44.974Z,16.15
2019-02-04T05:14:17.714Z,12.80
2019-02-04T05:16:49.917Z,14.85
2019-02-04T05:19:22.628Z,15.78
2019-02-04T05:21:56.279Z,13.50
2019-02-04T05:24:32.697Z,14.07
2019-02-04T05:27:06.031Z,14.30
2019-02-04T05:29:39.754Z,15.80
2019-02-04T05:35:12.546Z,10.58
2019-02-04T05:47:50.923Z,15.15
2019-02-04T05:50:52.109Z,18.57
2019-02-04T05:58:21.846Z,32.55
2019-02-04T06:02:22.777Z,24.18
2019-02-04T06:10:58.485Z,13.28
2019-02-04T06:15:18.762Z,15.83
2019-02-04T06:19:00.990Z,17.95
2019-02-04T06:22:59.342Z,13.88
2019-02-04T06:26:44.197Z,18.12
2019-02-04T06:55:57.631Z,16.48
2019-02-04T06:59:02.985Z,18.30
2019-02-04T07:01:58.185Z,16.00
2019-02-04T07:04:45.793Z,17.20
2019-02-04T07:07:39.490Z,17.32
2019-02-04T07:10:34.114Z,17.32
2019-02-04T07:13:35.592Z,12.55
2019-02-04T07:16:50.500Z,18.07
2019-02-04T07:19:41.668Z,18.65
2019-02-04T07:22:40.376Z,20.10
2019-02-04T07:25:38.169Z,15.45
2019-02-04T07:28:31.571Z,16.65
2019-02-04T07:31:19.840Z,14.47
2019-02-04T07:34:12.051Z,15.78
2019-02-04T07:37:19.490Z,17.00
2019-02-04T07:40:24.508Z,18.48
2019-02-04T07:43:08.962Z,15.93
2019-02-04T07:46:01.115Z,17.67
2019-02-04T07:48:56.656Z,20.85
2019-02-04T07:52:14.836Z,16.65
2019-02-04T07:54:53.430Z,22.40
2019-02-04T07:58:30.422Z,25.23
2019-02-04T08:01:57.395Z,20.05
2019-02-04T08:05:38.758Z,20.32
2019-02-04T08:08:51.300Z,23.60
2019-02-04T08:16:08.166Z,28.10
2019-02-04T08:18:52.703Z,25.62
2019-02-04T08:21:41.171Z,25.35
2019-02-04T08:25:19.486Z,23.05
2019-02-04T08:28:27.654Z,27.55
2019-02-04T08:31:32.308Z,28.95
2019-02-04T08:34:45.339Z,25.27
2019-02-04T08:38:01.804Z,24.72
2019-02-04T08:41:33.588Z,30.02
2019-02-04T08:48:42.165Z,40.88
2019-02-04T08:52:04.632Z,27.13
2019-02-04T08:55:01.350Z,31.85
2019-02-04T08:58:50.247Z,33.15
2019-02-04T09:05:54.185Z,32.98
2019-02-04T09:13:25.024Z,32.15
2019-02-04T09:16:26.623Z,24.95
2019-02-04T09:19:44.821Z,31.68
2019-02-04T09:23:20.446Z,28.45
2019-02-04T09:26:30.087Z,25.32
2019-02-04T09:29:28.359Z,22.30
2019-02-04T09:32:18.727Z,30.35
2019-02-04T09:34:52.457Z,26.48
2019-02-04T09:37:25.142Z,27.60
2019-02-04T09:39:57.985Z,22.80
2019-02-04T09:42:31.023Z,26.45
2019-02-04T09:45:04.446Z,25.75
2019-02-04T09:47:37.859Z,29.32
2019-02-04T09:50:21.381Z,24.57
2019-02-04T09:52:48.779Z,24.60
2019-02-04T09:55:29.428Z,21.40
2019-02-04T09:58:07.360Z,16.48
2019-02-04T10:00:41.402Z,20.45
2019-02-04T10:03:17.814Z,20.50
2019-02-04T10:05:51.520Z,21.27
2019-02-04T10:08:24.308Z,20.17
2019-02-04T10:10:57.878Z,17.60
2019-02-04T10:13:31.206Z,15.53
2019-02-04T10:16:05.832Z,19.55
2019-02-04T10:18:39.378Z,21.25
2019-02-04T10:21:13.400Z,21.05
2019-02-04T10:23:47.223Z,24.18
2019-02-04T10:26:21.401Z,24.98
2019-02-04T10:28:56.407Z,15.72
2019-02-04T10:31:30.313Z,22.13
2019-02-04T10:34:03.039Z,16.02
2019-02-04T10:36:37.012Z,17.35
2019-02-04T10:39:12.017Z,14.85
2019-02-04T10:41:44.960Z,17.30
2019-02-04T10:44:19.746Z,11.43
2019-02-04T10:46:55.210Z,10.68
2019-02-04T10:49:28.635Z,16.90
2019-02-04T10:52:02.838Z,15.00
2019-02-04T10:54:36.275Z,11.68
2019-02-04T10:57:11.277Z,9.70
2019-02-04T10:59:45.540Z,14.60
2019-02-04T11:02:17.661Z,13.60
2019-02-04T11:04:50.846Z,11.25
2019-02-04T11:07:24.671Z,12.90
2019-02-04T11:09:57.267Z,10.80
2019-02-04T11:12:30.767Z,10.60
2019-02-04T11:15:03.802Z,13.78
2019-02-04T11:17:37.579Z,7.50
2019-02-04T11:20:23.735Z,7.90
2019-02-04T11:22:56.772Z,10.65
2019-02-04T11:25:31.213Z,11.85
2019-02-04T11:28:05.072Z,10.23
2019-02-04T11:31:00.033Z,9.58
2019-02-04T11:33:33.058Z,15.05
2019-02-04T11:36:06.523Z,12.03
2019-02-04T11:38:40.477Z,7.50
2019-02-04T11:41:17.590Z,8.63
2019-02-04T11:43:50.497Z,11.30
2019-02-04T11:46:23.738Z,14.90
2019-02-04T11:48:58.143Z,15.98
2019-02-04T11:51:31.833Z,9.85
2019-02-04T11:54:04.613Z,9.93
2019-02-04T11:56:40.346Z,13.70
2019-02-04T11:59:13.679Z,9.48
2019-02-04T12:01:46.939Z,13.32
2019-02-04T12:04:20.270Z,12.25
2019-02-04T12:06:56.060Z,13.00
2019-02-04T12:09:29.382Z,10.75
2019-02-04T12:12:02.867Z,11.85
2019-02-04T12:14:36.588Z,11.30
2019-02-04T12:17:12.338Z,17.15
2019-02-04T12:19:45.902Z,13.78
2019-02-04T12:22:19.105Z,11.57
2019-02-04T12:24:53.479Z,16.52
2019-02-04T12:27:32.190Z,14.53
2019-02-04T12:30:02.133Z,16.05
2019-02-04T12:32:38.529Z,10.23
2019-02-04T12:35:13.924Z,7.47
2019-02-04T12:37:47.559Z,9.58
2019-02-04T12:40:21.419Z,9.18
2019-02-04T12:42:57.284Z,5.70
2019-02-04T12:45:32.943Z,6.45
2019-02-04T12:48:07.222Z,5.33
2019-02-04T12:50:39.949Z,11.63
2019-02-04T12:53:13.011Z,7.22
2019-02-04T12:55:46.264Z,5.65
2019-02-04T12:58:19.438Z,8.83
2019-02-04T13:00:52.791Z,5.20
2019-02-04T13:03:25.967Z,6.60
2019-02-04T13:06:02.729Z,7.25
2019-02-04T13:08:36.326Z,4.65
2019-02-04T13:11:09.364Z,7.55
2019-02-04T13:13:42.759Z,7.45
2019-02-04T13:16:15.735Z,7.95
2019-02-04T13:18:48.615Z,9.40
2019-02-04T13:21:22.368Z,8.70
2019-02-04T13:28:54.849Z,9.65
2019-02-04T13:31:40.390Z,11.90
2019-02-04T13:34:16.746Z,13.40
2019-02-04T13:37:09.397Z,12.07
2019-02-04T13:40:30.890Z,9.85
2019-02-04T13:43:12.519Z,11.05
2019-02-04T13:46:36.367Z,11.88
2019-02-04T13:50:54.826Z,11.65
2019-02-04T13:54:46.433Z,10.85
2019-02-04T13:57:31.560Z,12.25
2019-02-04T14:00:27.011Z,14.50
2019-02-04T14:04:06.778Z,10.98
2019-02-04T14:07:51.378Z,12.35
2019-02-04T14:10:56.015Z,17.60
2019-02-04T14:13:22.872Z,10.70
2019-02-04T14:16:06.973Z,12.13
2019-02-04T14:18:49.788Z,15.28
2019-02-04T14:21:51.761Z,10.78
2019-02-04T14:24:24.430Z,13.35
2019-02-04T14:27:12.576Z,13.13
2019-02-04T14:29:55.561Z,10.28
2019-02-04T14:32:56.634Z,10.53
2019-02-04T14:35:48.722Z,14.90
2019-02-04T14:39:28.929Z,14.68
2019-02-04T14:43:17.349Z,12.82
2019-02-04T14:47:36.362Z,14.20
2019-02-04T14:51:38.364Z,14.07
2019-02-04T14:54:50.590Z,12.28
2019-02-04T14:57:42.402Z,18.10
2019-02-04T15:01:04.160Z,9.78
2019-02-04T15:04:42.993Z,17.50
2019-02-04T15:08:19.028Z,14.43
2019-02-04T15:11:18.992Z,14.15
2019-02-04T15:15:08.709Z,17.17
2019-02-04T15:18:13.635Z,14.65
2019-02-04T15:21:30.930Z,13.38
2019-02-04T15:24:33.070Z,18.40
2019-02-04T15:28:23.803Z,18.23
2019-02-04T15:32:12.831Z,17.20
2019-02-04T15:35:30.024Z,10.63
2019-02-04T15:38:42.030Z,13.03
2019-02-04T15:41:39.209Z,16.82
2019-02-04T15:44:52.537Z,16.17
2019-02-04T15:48:00.779Z,14.10
2019-02-04T15:51:14.390Z,11.80
2019-02-04T15:53:49.666Z,16.20
2019-02-04T15:56:21.473Z,16.82
2019-02-04T15:58:53.770Z,14.28
2019-02-04T16:01:26.119Z,11.70
2019-02-04T16:03:58.093Z,13.80
2019-02-04T16:06:30.160Z,13.45
2019-02-04T16:09:02.272Z,11.80
2019-02-04T16:11:36.369Z,18.98
2019-02-04T16:14:08.718Z,16.15
2019-02-04T16:16:41.112Z,13.83
2019-02-04T16:19:13.107Z,10.85
2019-02-04T16:21:44.597Z,16.10
2019-02-04T16:24:16.230Z,15.05
2019-02-04T16:26:50.139Z,12.45
2019-02-04T16:29:21.609Z,19.62
2019-02-04T16:31:53.120Z,17.57
2019-02-04T16:34:29.002Z,17.15
2019-02-04T16:37:01.476Z,12.33
2019-02-04T16:39:34.358Z,19.48
2019-02-04T16:42:08.066Z,14.13
2019-02-04T16:44:41.023Z,15.63
2019-02-04T16:47:13.065Z,13.98
2019-02-04T16:49:44.572Z,14.30
2019-02-04T16:52:16.120Z,11.08
2019-02-04T16:54:47.985Z,12.33
2019-02-04T16:57:19.565Z,11.80
2019-02-04T17:00:13.694Z,15.43
2019-02-04T17:02:45.330Z,10.90
2019-02-04T17:05:16.993Z,14.28
2019-02-04T17:07:48.544Z,14.20
2019-02-04T17:10:21.461Z,15.18
2019-02-04T17:12:52.853Z,16.27
2019-02-04T17:15:25.936Z,14.68
2019-02-04T17:17:57.629Z,13.85
2019-02-04T17:20:31.929Z,14.20
2019-02-04T17:23:03.408Z,12.68
2019-02-04T17:25:35.057Z,16.17
2019-02-04T17:28:07.471Z,15.68
2019-02-04T17:30:39.335Z,21.75
2019-02-04T17:33:13.361Z,22.35
2019-02-04T17:35:48.143Z,16.25
2019-02-04T17:38:20.082Z,20.00
2019-02-04T17:41:03.923Z,17.92
2019-02-04T17:43:37.578Z,18.98
2019-02-04T17:46:11.333Z,19.42
2019-02-04T17:48:50.512Z,18.40
2019-02-04T17:51:26.472Z,14.40
2019-02-04T17:54:05.715Z,21.95
2019-02-04T17:56:37.366Z,19.85
2019-02-04T17:59:09.065Z,19.77
2019-02-04T18:01:43.113Z,17.15
2019-02-04T18:04:14.209Z,22.07
2019-02-04T18:06:45.832Z,22.35
2019-02-04T18:09:17.877Z,21.02
2019-02-04T18:11:53.693Z,19.57
2019-02-04T18:17:49.004Z,17.57
2019-02-04T18:20:29.308Z,21.65
2019-02-04T18:23:16.098Z,20.05
2019-02-04T18:25:51.435Z,20.52
2019-02-04T18:28:36.143Z,27.65
2019-02-04T18:31:26.236Z,23.95
2019-02-04T18:33:54.767Z,27.10
2019-02-04T18:36:31.570Z,22.02
2019-02-04T18:39:14.486Z,22.70
2019-02-04T18:41:46.774Z,22.05
2019-02-04T18:44:21.882Z,28.10
2019-02-04T18:46:54.846Z,23.30
2019-02-04T18:49:29.232Z,24.50
2019-02-04T18:52:01.146Z,18.75
2019-02-04T18:55:02.129Z,22.80
2019-02-04T18:58:16.075Z,23.15
2019-02-04T19:01:00.780Z,20.90
2019-02-04T19:03:46.277Z,25.75
2019-02-04T19:06:47.143Z,23.73
2019-02-04T19:09:27.719Z,18.40
2019-02-04T19:12:23.405Z,23.57
2019-02-04T19:15:23.848Z,21.62
2019-02-04T19:18:18.853Z,21.85
2019-02-04T19:21:18.080Z,26.93
2019-02-04T19:24:09.348Z,22.30
2019-02-04T19:26:50.476Z,21.70
2019-02-04T19:29:36.635Z,25.43
2019-02-04T19:32:10.025Z,28.00
2019-02-04T19:34:50.623Z,25.62
2019-02-04T19:37:33.904Z,23.30
2019-02-04T19:40:13.991Z,18.67
2019-02-04T19:42:54.105Z,18.05
2019-02-04T19:45:39.048Z,21.15
2019-02-04T19:48:15.833Z,21.45
2019-02-04T19:50:56.697Z,20.40
2019-02-04T19:53:44.765Z,19.25
2019-02-04T19:56:27.859Z,16.23
2019-02-04T19:59:08.559Z,20.68
2019-02-04T20:01:53.529Z,20.82
2019-02-04T20:04:38.815Z,23.92
2019-02-04T20:07:25.902Z,20.12
2019-02-04T20:10:15.001Z,27.22
2019-02-04T20:12:53.742Z,24.80
2019-02-04T20:15:31.767Z,21.87
2019-02-04T20:18:13.437Z,22.65
2019-02-04T20:21:04.497Z,20.97
2019-02-04T20:23:52.433Z,20.48
2019-02-04T20:26:27.211Z,23.12
2019-02-04T20:28:59.386Z,24.35
2019-02-04T20:31:57.539Z,22.80
2019-02-04T20:34:32.325Z,28.10
2019-02-04T20:37:17.368Z,36.42
2019-02-04T20:39:50.055Z,32.08
2019-02-04T20:42:22.489Z,36.68
2019-02-04T20:44:57.705Z,25.82
2019-02-04T20:47:30.000Z,22.07
2019-02-04T20:50:02.517Z,22.87
2019-02-04T20:52:37.362Z,22.62
2019-02-04T20:55:09.669Z,19.55
2019-02-04T20:57:44.187Z,23.42
2019-02-04T21:00:20.549Z,20.45
2019-02-04T21:02:54.181Z,23.35
2019-02-04T21:05:26.578Z,25.97
2019-02-04T21:07:58.893Z,24.72
2019-02-04T21:10:31.690Z,24.80
2019-02-04T21:13:12.862Z,23.73
2019-02-04T21:15:49.651Z,23.83
2019-02-04T21:18:21.986Z,21.30
2019-02-04T21:20:54.654Z,30.32
2019-02-04T21:23:26.927Z,24.23
2019-02-04T21:25:59.553Z,24.52
2019-02-04T21:28:31.749Z,25.85
2019-02-04T21:31:03.623Z,21.80
2019-02-04T21:33:41.591Z,25.68
2019-02-04T21:36:13.758Z,24.10
2019-02-04T21:38:46.020Z,27.22
2019-02-04T21:41:23.121Z,20.77
2019-02-04T21:44:00.078Z,25.35
2019-02-04T21:46:34.512Z,24.02
2019-02-04T21:49:06.884Z,21.30
2019-02-04T21:51:38.808Z,27.22
2019-02-04T21:54:12.969Z,23.40
2019-02-04T21:56:45.578Z,27.73
2019-02-04T21:59:17.879Z,22.80
2019-02-04T22:01:53.322Z,26.17
2019-02-04T22:04:26.651Z,22.80
2019-02-04T22:06:58.614Z,29.55
2019-02-04T22:09:30.747Z,26.12
2019-02-04T22:12:02.383Z,23.98
2019-02-04T22:14:34.530Z,28.90
2019-02-04T22:17:06.587Z,25.05
2019-02-04T22:19:38.529Z,21.30
2019-02-04T22:22:10.553Z,23.70
2019-02-04T22:24:42.796Z,26.15
2019-02-04T22:27:15.249Z,25.65
2019-02-04T22:29:47.143Z,22.65
2019-02-04T22:32:20.687Z,26.25
2019-02-04T22:34:54.826Z,24.50
2019-02-04T22:37:26.842Z,23.67
2019-02-04T22:39:59.219Z,25.90
2019-02-04T22:42:32.956Z,24.85
2019-02-04T22:45:07.331Z,26.82
2019-02-04T22:47:39.180Z,26.87
2019-02-04T22:50:18.672Z,27.13
2019-02-04T22:52:50.995Z,28.98
2019-02-04T22:55:31.518Z,26.45
2019-02-04T22:57:57.709Z,29.32
2019-02-04T23:00:59.668Z,26.23
2019-02-04T23:03:33.554Z,27.15
2019-02-04T23:06:07.075Z,28.27
2019-02-04T23:08:38.865Z,28.57
2019-02-04T23:11:11.181Z,24.92
2019-02-04T23:13:47.009Z,31.20
2019-02-04T23:16:20.123Z,23.65
2019-02-04T23:18:52.572Z,30.92
2019-02-04T23:21:25.990Z,28.60
2019-02-04T23:23:58.091Z,31.62
2019-02-04T23:26:32.571Z,27.67
2019-02-04T23:29:04.871Z,32.05
2019-02-04T23:31:37.343Z,35.17
2019-02-04T23:34:09.470Z,27.77
2019-02-04T23:36:41.802Z,36.48
2019-02-04T23:39:15.448Z,34.03
2019-02-04T23:41:49.614Z,29.02
2019-02-04T23:44:20.991Z,29.32
2019-02-04T23:46:56.002Z,26.73
2019-02-04T23:49:29.724Z,25.77
2019-02-04T23:52:02.887Z,26.33
2019-02-04T23:54:35.041Z,25.70
2019-02-04T23:57:13.893Z,27.48
2019-02-04T23:59:48.575Z,30.45
